Time;durP1;ratioP1;P1;durP2;ratioP2;P2;SDS_P1;SDS_P2;PMS_P1;PMS_P2;Temp;Humidity;BMP_temperature;BMP_pressure;BME280_temperature;BME280_humidity;BME280_pressure;Samples;Min_cycle;Max_cycle;Signal;HPM_P1;HPM_P2
2023/07/10 00:00:24;;;;;;;9.18;3.40;;;16.20;99.90;;;;;;4925699;29;20044;-83
2023/07/10 00:02:50;;;;;;;11.82;3.03;;;16.10;99.90;;;;;;4925575;29;20054;-82
2023/07/10 00:05:18;;;;;;;7.75;2.63;;;16.10;99.90;;;;;;4926722;29;20046;-82
2023/07/10 00:07:44;;;;;;;9.93;3.10;;;16.10;99.90;;;;;;4908911;29;20076;-84
2023/07/10 00:10:12;;;;;;;9.77;3.20;;;15.90;99.90;;;;;;4940200;29;20220;-83
2023/07/10 00:12:39;;;;;;;11.88;3.33;;;15.90;99.90;;;;;;4927666;29;20111;-84
2023/07/10 00:15:18;;;;;;;9.82;4.03;;;15.80;99.90;;;;;;4920806;29;20032;-84
2023/07/10 00:17:45;;;;;;;8.88;3.30;;;15.80;99.90;;;;;;4923527;29;20099;-83
2023/07/10 00:20:17;;;;;;;12.30;2.88;;;15.70;99.90;;;;;;4922875;29;20059;-82
2023/07/10 00:22:43;;;;;;;7.88;2.83;;;15.70;99.90;;;;;;4934227;29;20039;-82
2023/07/10 00:25:10;;;;;;;14.68;3.40;;;15.60;99.90;;;;;;4927491;29;20239;-82
2023/07/10 00:27:36;;;;;;;8.80;3.05;;;15.60;99.90;;;;;;4928361;29;20028;-82
2023/07/10 00:30:02;;;;;;;9.50;2.78;;;15.50;99.90;;;;;;4926320;29;20054;-82
2023/07/10 00:32:27;;;;;;;13.90;3.13;;;15.50;99.90;;;;;;4925877;29;20518;-82
2023/07/10 00:34:54;;;;;;;10.48;3.00;;;15.40;99.90;;;;;;4927713;29;20114;-83
2023/07/10 00:37:19;;;;;;;9.80;2.78;;;15.30;99.90;;;;;;4941726;29;20736;-83
2023/07/10 00:39:45;;;;;;;6.72;2.30;;;15.20;99.90;;;;;;4927076;29;20114;-82
2023/07/10 00:42:22;;;;;;;9.73;3.38;;;15.20;99.90;;;;;;4927816;29;20186;-83
2023/07/10 00:44:56;;;;;;;7.20;2.72;;;15.10;99.90;;;;;;4927331;29;20034;-83
2023/07/10 00:47:32;;;;;;;11.48;2.53;;;15.00;99.90;;;;;;4929366;29;20074;-83
2023/07/10 00:50:06;;;;;;;9.68;2.35;;;14.90;99.90;;;;;;4929832;29;20107;-82
2023/07/10 00:52:37;;;;;;;8.10;2.03;;;14.90;99.90;;;;;;4930478;29;20030;-83
2023/07/10 00:55:29;;;;;;;6.17;2.27;;;14.90;99.90;;;;;;4930721;29;20282;-82
2023/07/10 00:58:24;;;;;;;6.97;1.92;;;14.90;99.90;;;;;;4930836;29;20377;-83
2023/07/10 01:01:08;;;;;;;5.05;1.98;;;14.90;99.90;;;;;;4930182;29;20079;-82
2023/07/10 01:03:35;;;;;;;6.57;2.13;;;14.80;99.90;;;;;;4929661;29;20066;-83
2023/07/10 01:06:25;;;;;;;9.35;2.50;;;14.80;99.90;;;;;;4928384;29;20110;-82
2023/07/10 01:09:05;;;;;;;8.15;2.05;;;14.80;99.90;;;;;;4929428;29;20113;-83
2023/07/10 01:11:34;;;;;;;6.07;2.38;;;14.80;99.90;;;;;;4928689;29;20039;-82
2023/07/10 01:14:01;;;;;;;9.77;2.40;;;14.80;99.90;;;;;;4929206;29;20490;-82
2023/07/10 01:16:28;;;;;;;4.22;1.95;;;14.70;99.90;;;;;;4912125;29;20087;-82
2023/07/10 01:18:54;;;;;;;9.32;2.17;;;14.60;99.90;;;;;;4930745;29;20090;-82
2023/07/10 01:21:24;;;;;;;8.20;2.78;;;14.60;99.90;;;;;;4929420;29;20227;-81
2023/07/10 01:23:50;;;;;;;6.88;2.45;;;14.50;99.90;;;;;;4931290;29;20040;-82
2023/07/10 01:26:16;;;;;;;7.53;2.63;;;14.40;99.90;;;;;;4930104;29;20127;-82
2023/07/10 01:28:42;;;;;;;4.28;2.40;;;14.30;99.90;;;;;;4930395;29;20087;-82
2023/07/10 01:31:11;;;;;;;8.10;2.13;;;14.30;99.90;;;;;;4939133;29;20075;-82
2023/07/10 01:33:48;;;;;;;10.38;2.50;;;14.20;99.90;;;;;;4918539;29;20070;-82
2023/07/10 01:36:17;;;;;;;10.65;2.40;;;14.20;99.90;;;;;;4917695;29;20056;-81
2023/07/10 01:38:47;;;;;;;5.90;2.20;;;14.10;99.90;;;;;;4930310;29;20431;-81
2023/07/10 01:41:29;;;;;;;7.70;2.00;;;14.10;99.90;;;;;;4951249;28;20043;-81
2023/07/10 01:43:55;;;;;;;9.18;2.70;;;14.10;99.90;;;;;;4948597;29;20395;-82
2023/07/10 01:46:23;;;;;;;7.80;2.30;;;14.10;99.90;;;;;;4936752;29;20031;-81
2023/07/10 01:48:52;;;;;;;9.02;2.63;;;14.00;99.90;;;;;;4926147;29;20560;-82
2023/07/10 01:51:19;;;;;;;6.07;2.28;;;14.00;99.90;;;;;;4919887;29;20041;-81
2023/07/10 01:53:45;;;;;;;7.65;2.22;;;13.90;99.90;;;;;;4928698;29;20591;-81
2023/07/10 01:56:12;;;;;;;5.95;2.20;;;13.90;99.90;;;;;;4930155;29;20035;-81
2023/07/10 01:58:38;;;;;;;8.77;2.28;;;13.90;99.90;;;;;;4940854;28;20413;-81
2023/07/10 02:01:03;;;;;;;10.15;2.20;;;13.80;99.90;;;;;;4922601;29;20059;-81
2023/07/10 02:03:29;;;;;;;9.15;1.85;;;13.80;99.90;;;;;;4927788;29;20575;-81
2023/07/10 02:05:54;;;;;;;7.85;2.38;;;13.80;99.90;;;;;;4928603;29;20031;-81
2023/07/10 02:08:20;;;;;;;7.53;1.80;;;13.70;99.90;;;;;;4927513;29;20027;-82
2023/07/10 02:10:46;;;;;;;6.60;1.70;;;13.60;99.90;;;;;;4941256;29;20058;-80
2023/07/10 02:13:12;;;;;;;8.02;1.95;;;13.60;99.90;;;;;;4925092;29;20055;-82
2023/07/10 02:15:37;;;;;;;9.52;2.22;;;13.50;99.90;;;;;;4923592;29;20091;-80
2023/07/10 02:18:03;;;;;;;7.50;1.70;;;13.50;99.90;;;;;;4929463;29;20432;-83
2023/07/10 02:20:29;;;;;;;5.05;2.00;;;13.50;99.90;;;;;;4928870;29;20039;-84
2023/07/10 02:22:54;;;;;;;7.80;1.77;;;13.50;99.90;;;;;;4927735;29;20050;-83
2023/07/10 02:25:20;;;;;;;5.63;2.05;;;13.50;99.90;;;;;;4927114;29;20035;-83
2023/07/10 02:27:46;;;;;;;7.80;1.95;;;13.50;99.90;;;;;;4943338;29;20047;-83
2023/07/10 02:30:12;;;;;;;6.68;1.63;;;13.50;99.90;;;;;;4928404;29;20122;-83
2023/07/10 02:32:38;;;;;;;7.40;1.98;;;13.40;99.90;;;;;;4930110;29;20123;-83
2023/07/10 02:35:03;;;;;;;6.10;1.77;;;13.40;99.90;;;;;;4928293;29;20043;-83
2023/07/10 02:37:29;;;;;;;10.82;1.90;;;13.30;99.90;;;;;;4926891;29;20460;-83
2023/07/10 02:39:55;;;;;;;9.43;2.45;;;13.30;99.90;;;;;;4927876;29;20220;-82
2023/07/10 02:42:20;;;;;;;5.38;1.52;;;13.30;99.90;;;;;;4928958;29;20820;-82
2023/07/10 02:44:46;;;;;;;7.50;2.28;;;13.30;99.90;;;;;;4923397;29;20032;-83
2023/07/10 02:47:11;;;;;;;6.28;2.03;;;13.30;99.90;;;;;;4929304;29;20460;-83
2023/07/10 02:49:37;;;;;;;7.32;1.85;;;13.30;99.90;;;;;;4930446;29;20035;-84
2023/07/10 02:52:03;;;;;;;5.00;1.60;;;13.20;99.90;;;;;;4929014;29;20111;-83
2023/07/10 02:54:29;;;;;;;7.28;1.92;;;13.20;99.90;;;;;;4929121;29;20028;-82
2023/07/10 02:56:54;;;;;;;5.35;1.80;;;13.20;99.90;;;;;;4930987;29;20094;-82
2023/07/10 02:59:25;;;;;;;6.03;1.98;;;13.20;99.90;;;;;;4930167;29;20154;-82
2023/07/10 03:01:51;;;;;;;4.90;1.55;;;13.20;99.90;;;;;;4929406;29;20035;-83
2023/07/10 03:04:16;;;;;;;4.72;1.70;;;13.20;99.90;;;;;;4920273;29;20348;-83
2023/07/10 03:06:42;;;;;;;6.55;1.70;;;13.30;99.90;;;;;;4932477;29;20063;-83
2023/07/10 03:09:08;;;;;;;4.65;1.70;;;13.20;99.90;;;;;;4941902;28;20034;-83
2023/07/10 03:11:33;;;;;;;7.35;1.98;;;13.20;99.90;;;;;;4949839;28;20044;-83
2023/07/10 03:14:01;;;;;;;8.73;1.65;;;13.20;99.90;;;;;;4942325;29;20032;-83
2023/07/10 03:16:27;;;;;;;6.20;1.67;;;13.10;99.90;;;;;;4934875;29;20046;-84
2023/07/10 03:18:52;;;;;;;5.75;1.75;;;13.10;99.90;;;;;;4927037;29;20144;-83
2023/07/10 03:21:18;;;;;;;3.60;1.63;;;13.00;99.90;;;;;;4928348;29;20448;-83
2023/07/10 03:23:47;;;;;;;4.35;1.45;;;13.00;99.90;;;;;;4924054;29;20032;-83
2023/07/10 03:26:13;;;;;;;4.47;1.80;;;12.90;99.90;;;;;;4921097;29;20040;-82
2023/07/10 03:28:38;;;;;;;6.03;1.77;;;12.90;99.90;;;;;;4928994;29;20461;-82
2023/07/10 03:31:04;;;;;;;5.80;1.80;;;12.90;99.90;;;;;;4928041;29;20495;-82
2023/07/10 03:33:30;;;;;;;3.50;1.58;;;12.90;99.90;;;;;;4928310;29;20057;-83
2023/07/10 03:36:01;;;;;;;7.13;1.80;;;12.90;99.90;;;;;;4925770;29;20032;-83
2023/07/10 03:38:27;;;;;;;5.80;1.60;;;12.90;99.90;;;;;;4918587;29;20032;-82
2023/07/10 03:40:54;;;;;;;8.27;2.00;;;13.00;99.90;;;;;;4921851;29;20055;-82
2023/07/10 03:43:20;;;;;;;6.60;1.90;;;13.00;99.90;;;;;;4926770;29;20127;-83
2023/07/10 03:45:45;;;;;;;8.35;2.10;;;13.00;99.90;;;;;;4927846;29;20118;-82
2023/07/10 03:48:11;;;;;;;3.50;1.70;;;13.10;99.90;;;;;;4926607;29;20031;-82
2023/07/10 03:50:37;;;;;;;5.30;1.88;;;13.20;99.90;;;;;;4924222;29;20027;-81
2023/07/10 03:53:02;;;;;;;10.05;1.63;;;13.20;99.90;;;;;;4927617;29;20038;-82
2023/07/10 03:55:28;;;;;;;5.75;2.00;;;13.30;99.90;;;;;;4927643;29;20119;-82
2023/07/10 03:57:53;;;;;;;8.68;1.85;;;13.20;99.90;;;;;;4931489;29;20031;-83
2023/07/10 04:00:19;;;;;;;4.10;1.40;;;13.20;99.90;;;;;;4928118;29;20031;-82
2023/07/10 04:02:45;;;;;;;6.57;2.08;;;13.20;99.90;;;;;;4925020;29;20028;-82
2023/07/10 04:05:10;;;;;;;4.30;1.92;;;13.20;99.90;;;;;;4927775;29;20039;-82
2023/07/10 04:07:36;;;;;;;8.88;2.05;;;13.20;99.90;;;;;;4927981;29;20110;-81
2023/07/10 04:10:02;;;;;;;4.78;1.65;;;13.20;99.90;;;;;;4927657;29;20051;-82
2023/07/10 04:12:28;;;;;;;10.30;2.03;;;13.30;99.90;;;;;;4928170;29;20027;-83
2023/07/10 04:14:54;;;;;;;9.68;1.85;;;13.30;99.90;;;;;;4918465;29;20036;-82
2023/07/10 04:17:19;;;;;;;8.73;2.33;;;13.30;99.90;;;;;;4921963;29;20121;-82
2023/07/10 04:19:45;;;;;;;6.50;2.20;;;13.30;99.90;;;;;;4926131;29;20054;-83
2023/07/10 04:22:10;;;;;;;6.00;1.65;;;13.20;99.90;;;;;;4927039;29;21030;-81
2023/07/10 04:24:36;;;;;;;4.82;1.80;;;13.20;99.90;;;;;;4943232;29;20031;-81
2023/07/10 04:27:02;;;;;;;6.20;1.83;;;13.30;99.90;;;;;;4921191;29;20036;-83
2023/07/10 04:29:27;;;;;;;7.85;1.63;;;13.30;99.90;;;;;;4927760;29;20066;-82
2023/07/10 04:31:53;;;;;;;6.97;1.70;;;13.40;99.90;;;;;;4941438;29;20034;-83
2023/07/10 04:34:19;;;;;;;9.43;1.60;;;13.40;99.90;;;;;;4928886;29;20043;-83
2023/07/10 04:36:44;;;;;;;6.22;1.80;;;13.50;99.90;;;;;;4930995;29;20059;-82
2023/07/10 04:39:10;;;;;;;7.40;1.98;;;13.50;99.90;;;;;;4930321;29;20099;-82
2023/07/10 04:41:37;;;;;;;7.25;1.90;;;13.50;99.90;;;;;;4929101;29;20061;-82
2023/07/10 04:44:03;;;;;;;4.90;1.52;;;13.60;99.90;;;;;;4930507;29;20065;-82
2023/07/10 04:46:30;;;;;;;4.82;1.60;;;13.60;99.90;;;;;;4930822;29;20099;-83
2023/07/10 04:48:55;;;;;;;6.72;1.80;;;13.60;99.90;;;;;;4938010;29;20036;-83
2023/07/10 04:51:21;;;;;;;5.80;1.92;;;13.70;99.90;;;;;;4930354;29;20034;-83
2023/07/10 04:53:47;;;;;;;5.72;1.95;;;13.80;99.90;;;;;;4930705;29;20064;-83
2023/07/10 04:56:15;;;;;;;8.98;1.77;;;13.90;99.90;;;;;;4931061;29;20056;-83
2023/07/10 04:58:52;;;;;;;4.35;1.38;;;14.10;99.90;;;;;;4926667;29;20449;-83
2023/07/10 05:01:20;;;;;;;7.13;1.10;;;14.20;99.90;;;;;;4929080;29;20071;-83
2023/07/10 05:03:46;;;;;;;3.70;1.25;;;14.30;99.90;;;;;;4930455;29;20703;-83
2023/07/10 05:06:12;;;;;;;2.13;1.10;;;14.30;99.90;;;;;;4931274;29;20038;-82
2023/07/10 05:08:37;;;;;;;4.80;1.00;;;14.40;99.90;;;;;;4930649;29;20657;-83
2023/07/10 05:11:03;;;;;;;3.63;1.30;;;14.50;99.90;;;;;;4928522;29;20024;-82
2023/07/10 05:13:29;;;;;;;6.07;1.67;;;14.50;99.90;;;;;;4930811;29;20035;-82
2023/07/10 05:15:57;;;;;;;4.72;1.48;;;14.60;99.90;;;;;;4918126;29;20100;-82
2023/07/10 05:18:22;;;;;;;4.65;1.20;;;14.60;99.90;;;;;;4910041;29;20103;-83
2023/07/10 05:20:49;;;;;;;4.40;1.30;;;14.70;99.90;;;;;;4941182;29;20059;-82
2023/07/10 05:23:16;;;;;;;2.10;1.10;;;14.80;99.90;;;;;;4930002;29;20027;-83
2023/07/10 05:25:53;;;;;;;6.20;1.85;;;14.90;99.90;;;;;;4931114;29;20062;-83
2023/07/10 05:28:19;;;;;;;3.78;1.38;;;14.90;99.90;;;;;;4914607;29;20504;-83
2023/07/10 05:30:44;;;;;;;8.60;1.50;;;15.10;99.90;;;;;;4930706;29;20078;-82
2023/07/10 05:33:11;;;;;;;4.53;1.50;;;15.20;99.90;;;;;;4929505;29;20713;-82
2023/07/10 05:35:36;;;;;;;4.03;1.50;;;15.30;99.90;;;;;;4927498;29;20034;-82
2023/07/10 05:38:02;;;;;;;2.90;1.40;;;15.50;99.90;;;;;;4928715;29;20563;-82
2023/07/10 05:40:27;;;;;;;4.97;1.25;;;15.60;99.90;;;;;;4932429;29;20050;-83
2023/07/10 05:42:53;;;;;;;5.15;1.60;;;15.70;99.90;;;;;;4929508;29;20440;-82
2023/07/10 05:45:18;;;;;;;4.65;1.83;;;15.60;99.90;;;;;;4944792;29;20040;-82
2023/07/10 05:47:44;;;;;;;4.47;1.70;;;15.60;99.90;;;;;;4944162;29;20423;-82
2023/07/10 05:50:10;;;;;;;6.90;1.65;;;15.60;99.90;;;;;;4928794;29;20028;-82
2023/07/10 05:52:35;;;;;;;5.15;1.60;;;15.60;99.90;;;;;;4916026;29;20083;-82
2023/07/10 05:55:01;;;;;;;7.65;2.00;;;15.60;99.90;;;;;;4929180;29;20040;-83
2023/07/10 05:57:26;;;;;;;7.05;2.42;;;15.60;99.90;;;;;;4930640;29;20028;-82
2023/07/10 05:59:52;;;;;;;11.27;3.10;;;15.60;99.90;;;;;;4931350;29;20043;-83
2023/07/10 06:02:17;;;;;;;9.23;2.50;;;15.60;99.90;;;;;;4923097;29;20024;-83
2023/07/10 06:04:43;;;;;;;5.97;2.25;;;15.70;99.90;;;;;;4915896;29;20039;-82
2023/07/10 06:07:09;;;;;;;11.02;2.45;;;15.70;99.90;;;;;;4911105;29;20078;-83
2023/07/10 06:09:34;;;;;;;6.75;2.22;;;15.80;99.90;;;;;;4936577;29;20043;-83
2023/07/10 06:12:00;;;;;;;12.52;2.80;;;15.90;99.90;;;;;;4916583;29;20054;-82
2023/07/10 06:14:26;;;;;;;12.55;2.55;;;16.10;99.90;;;;;;4929051;29;20040;-82
2023/07/10 06:16:51;;;;;;;12.95;2.72;;;16.20;99.90;;;;;;4926542;29;20027;-82
2023/07/10 06:19:17;;;;;;;9.05;2.70;;;16.40;99.90;;;;;;4924785;29;20461;-81
2023/07/10 06:21:45;;;;;;;13.55;2.70;;;16.60;99.90;;;;;;4921630;29;20424;-82
2023/07/10 06:24:11;;;;;;;11.30;2.20;;;16.70;99.90;;;;;;4920319;29;20133;-82
2023/07/10 06:26:36;;;;;;;10.88;2.45;;;16.90;99.90;;;;;;4922957;29;20135;-83
2023/07/10 06:29:02;;;;;;;66.55;36.55;;;16.90;99.90;;;;;;4922222;29;20041;-82
2023/07/10 06:31:27;;;;;;;24.60;12.25;;;17.00;99.90;;;;;;4922584;29;20399;-82
2023/07/10 06:33:53;;;;;;;11.57;2.22;;;17.00;99.90;;;;;;4936141;29;20062;-81
2023/07/10 06:36:19;;;;;;;9.48;2.88;;;17.00;99.90;;;;;;4923582;29;20036;-81
2023/07/10 06:38:44;;;;;;;10.70;1.90;;;17.10;99.90;;;;;;4921512;29;20063;-81
2023/07/10 06:41:11;;;;;;;6.72;1.75;;;17.10;99.90;;;;;;4923597;29;20055;-82
2023/07/10 06:43:37;;;;;;;11.15;1.80;;;17.10;99.90;;;;;;4929227;29;20107;-82
2023/07/10 06:46:02;;;;;;;9.15;2.00;;;17.20;99.90;;;;;;4927006;29;20509;-82
2023/07/10 06:48:28;;;;;;;11.40;2.00;;;17.30;99.90;;;;;;4927488;29;20028;-82
2023/07/10 06:50:55;;;;;;;11.73;1.80;;;17.50;99.90;;;;;;4942845;29;20522;-83
2023/07/10 06:53:22;;;;;;;8.00;1.40;;;17.50;99.90;;;;;;4928471;29;20508;-83
2023/07/10 06:55:56;;;;;;;9.20;2.35;;;17.70;99.90;;;;;;4925079;29;20039;-82
2023/07/10 06:58:21;;;;;;;9.18;1.60;;;17.80;99.90;;;;;;4922248;29;20114;-82
2023/07/10 07:00:47;;;;;;;7.43;1.67;;;18.00;99.90;;;;;;4917566;29;20334;-82
2023/07/10 07:03:12;;;;;;;8.02;1.70;;;18.20;99.90;;;;;;4923584;29;20027;-84
2023/07/10 07:05:42;;;;;;;6.68;1.27;;;18.70;99.90;;;;;;4929874;29;20035;-83
2023/07/10 07:08:07;;;;;;;8.00;1.40;;;19.40;99.90;;;;;;4927836;29;20567;-83
2023/07/10 07:10:33;;;;;;;9.80;1.45;;;20.20;99.90;;;;;;4921128;29;20119;-82
2023/07/10 07:12:58;;;;;;;8.75;1.30;;;20.90;99.90;;;;;;4922274;29;20042;-82
2023/07/10 07:15:24;;;;;;;6.63;1.20;;;21.30;99.90;;;;;;4918853;29;20063;-84
2023/07/10 07:17:50;;;;;;;6.20;1.02;;;21.60;99.90;;;;;;4927637;29;20024;-82
2023/07/10 07:20:16;;;;;;;3.92;0.82;;;22.20;99.90;;;;;;4927818;29;20067;-80
2023/07/10 07:22:42;;;;;;;6.80;0.70;;;22.40;99.90;;;;;;4925166;29;20038;-83
2023/07/10 07:25:08;;;;;;;4.70;0.93;;;22.40;99.90;;;;;;4912580;29;20036;-81
2023/07/10 07:27:33;;;;;;;7.55;1.13;;;22.40;99.90;;;;;;4923488;29;20135;-86
2023/07/10 07:30:04;;;;;;;3.75;0.75;;;22.30;99.90;;;;;;4908162;29;20066;-83
2023/07/10 07:32:29;;;;;;;3.65;0.90;;;22.80;99.90;;;;;;4908465;29;20062;-83
2023/07/10 07:34:55;;;;;;;5.00;1.10;;;23.40;99.90;;;;;;4920054;29;20036;-82
2023/07/10 07:37:21;;;;;;;4.82;1.55;;;23.60;99.90;;;;;;4927105;29;20035;-82
2023/07/10 07:39:47;;;;;;;8.02;1.40;;;24.10;99.30;;;;;;4921779;29;20110;-81
2023/07/10 07:42:12;;;;;;;4.75;0.90;;;24.40;99.20;;;;;;4920804;29;20078;-82
2023/07/10 07:44:38;;;;;;;4.65;0.98;;;24.80;97.80;;;;;;4926745;29;20090;-82
2023/07/10 07:47:04;;;;;;;4.85;1.10;;;25.10;94.50;;;;;;4926363;29;20040;-83
2023/07/10 07:49:29;;;;;;;4.68;0.90;;;25.10;90.70;;;;;;4925722;29;20103;-82
2023/07/10 07:51:55;;;;;;;4.93;1.00;;;24.80;90.70;;;;;;4925643;29;20043;-84
2023/07/10 07:54:20;;;;;;;5.55;1.00;;;24.50;90.00;;;;;;4924644;29;20028;-82
2023/07/10 07:56:46;;;;;;;3.95;0.90;;;24.20;93.10;;;;;;4925174;29;20091;-83
2023/07/10 07:59:12;;;;;;;7.25;1.00;;;24.10;92.40;;;;;;4924597;29;20460;-84
2023/07/10 08:01:37;;;;;;;2.95;0.82;;;23.30;95.20;;;;;;4925039;29;20063;-82
2023/07/10 08:04:03;;;;;;;6.47;0.90;;;23.00;96.90;;;;;;4925375;29;20035;-83
2023/07/10 08:06:31;;;;;;;2.33;0.70;;;22.90;97.50;;;;;;4924766;29;20114;-83
2023/07/10 08:08:58;;;;;;;2.53;0.80;;;23.10;95.80;;;;;;4924822;29;20036;-83
2023/07/10 08:11:24;;;;;;;3.58;0.77;;;22.90;96.90;;;;;;4925810;29;20114;-83
2023/07/10 08:13:50;;;;;;;8.13;1.00;;;22.80;98.20;;;;;;4925744;29;20131;-83
2023/07/10 08:16:16;;;;;;;6.20;0.93;;;22.50;98.10;;;;;;4920028;29;20142;-81
2023/07/10 08:18:42;;;;;;;4.05;0.85;;;22.00;97.60;;;;;;4924878;29;20095;-83
2023/07/10 08:21:10;;;;;;;7.40;1.05;;;21.70;99.90;;;;;;4925402;29;20393;-81
2023/07/10 08:23:36;;;;;;;5.88;0.82;;;21.80;99.90;;;;;;4925031;29;20582;-83
2023/07/10 08:26:02;;;;;;;6.80;1.13;;;21.80;99.90;;;;;;4922710;29;20121;-82
2023/07/10 08:28:28;;;;;;;5.03;1.00;;;22.00;99.90;;;;;;4922406;29;20480;-82
2023/07/10 08:30:54;;;;;;;6.65;1.05;;;22.40;99.90;;;;;;4945670;29;20070;-82
2023/07/10 08:33:19;;;;;;;4.35;0.93;;;22.90;99.90;;;;;;4933852;29;20044;-82
2023/07/10 08:35:55;;;;;;;6.35;0.90;;;23.30;99.20;;;;;;4922707;29;20539;-81
2023/07/10 08:38:20;;;;;;;3.60;0.80;;;24.10;98.40;;;;;;4922072;29;20283;-80
2023/07/10 08:40:49;;;;;;;9.90;0.90;;;25.40;92.40;;;;;;4932180;29;20046;-82
2023/07/10 08:43:29;;;;;;;7.88;1.17;;;26.30;86.10;;;;;;4923180;29;20136;-83
2023/07/10 08:46:04;;;;;;;5.80;0.70;;;27.50;81.40;;;;;;4925250;29;20119;-83
2023/07/10 08:48:38;;;;;;;5.95;1.10;;;27.80;69.80;;;;;;4924644;29;20031;-84
2023/07/10 08:51:19;;;;;;;5.72;1.00;;;27.60;72.90;;;;;;4939639;28;20035;-83
2023/07/10 08:53:46;;;;;;;;;;;26.90;74.10;;;;;;4940014;29;20403;-81
2023/07/10 08:56:27;;;;;;;7.20;1.30;;;26.50;77.80;;;;;;4925913;29;20051;-83
2023/07/10 08:59:00;;;;;;;5.15;0.90;;;26.40;74.70;;;;;;4922643;29;20028;-83
2023/07/10 09:01:36;;;;;;;4.70;0.88;;;25.60;76.40;;;;;;4918261;29;20228;-85
2023/07/10 09:04:04;;;;;;;5.82;0.90;;;25.60;77.40;;;;;;4917465;29;20047;-83
2023/07/10 09:06:48;;;;;;;4.13;0.98;;;25.60;74.60;;;;;;4922045;29;20023;-82
2023/07/10 09:09:38;;;;;;;4.72;0.70;;;27.00;73.20;;;;;;4915043;29;20035;-83
2023/07/10 09:12:21;;;;;;;4.65;0.90;;;27.40;73.40;;;;;;4914376;29;20383;-84
2023/07/10 09:15:02;;;;;;;4.75;0.93;;;28.50;77.80;;;;;;4922471;29;20040;-84
2023/07/10 09:17:46;;;;;;;;;;;31.10;62.80;;;;;;4923307;29;20070;-81
2023/07/10 09:20:12;;;;;;;3.78;0.82;;;34.20;61.10;;;;;;4925522;29;19922;-79
2023/07/10 09:22:47;;;;;;;6.00;1.00;;;37.00;49.30;;;;;;4923498;29;20042;-82
2023/07/10 09:25:13;;;;;;;4.35;1.00;;;38.70;41.80;;;;;;4923833;29;20149;-81
2023/07/10 09:27:44;;;;;;;5.10;1.10;;;39.10;40.30;;;;;;4936528;29;20118;-85
2023/07/10 09:30:20;;;;;;;2.97;0.82;;;40.80;38.20;;;;;;4913883;29;20218;-85
2023/07/10 09:32:46;;;;;;;7.65;1.13;;;41.90;35.90;;;;;;4911351;29;20051;-82
2023/07/10 09:35:16;;;;;;;5.97;0.95;;;40.90;36.00;;;;;;4921706;29;20028;-81
2023/07/10 09:37:41;;;;;;;;;;;38.90;35.10;;;;;;4937505;29;20039;-79
2023/07/10 09:40:43;;;;;;;7.45;1.10;;;38.80;36.60;;;;;;4923616;29;19944;-84
2023/07/10 09:43:14;;;;;;;3.30;0.77;;;38.60;37.40;;;;;;4924210;29;20031;-83
2023/07/10 09:45:44;;;;;;;3.72;0.90;;;40.20;37.40;;;;;;4927158;29;20083;-79
2023/07/10 09:48:14;;;;;;;4.05;0.80;;;41.50;35.50;;;;;;4915203;29;20050;-80
2023/07/10 09:50:46;;;;;;;4.10;0.70;;;41.10;35.80;;;;;;4924961;29;20024;-80
2023/07/10 09:53:33;;;;;;;3.42;0.93;;;41.40;36.60;;;;;;4926763;29;20114;-80
2023/07/10 09:55:59;;;;;;;4.82;0.90;;;40.80;34.70;;;;;;4908432;29;20357;-80
2023/07/10 09:58:25;;;;;;;5.18;0.82;;;42.20;34.50;;;;;;4920717;29;20487;-82
2023/07/10 10:00:51;;;;;;;4.47;0.90;;;42.70;33.20;;;;;;4917311;29;20036;-84
2023/07/10 10:03:32;;;;;;;4.78;0.98;;;41.30;31.10;;;;;;4925623;29;20307;-80
2023/07/10 10:05:59;;;;;;;5.20;1.00;;;40.00;32.80;;;;;;4913846;29;20039;-81
2023/07/10 10:08:42;;;;;;;3.22;0.80;;;39.70;33.50;;;;;;4916025;29;20082;-78
2023/07/10 10:11:11;;;;;;;7.68;1.10;;;39.10;33.80;;;;;;4915930;29;20149;-81
2023/07/10 10:13:43;;;;;;;6.65;1.02;;;37.20;34.80;;;;;;4914844;29;20111;-81
2023/07/10 10:16:31;;;;;;;3.72;0.80;;;38.10;38.30;;;;;;4919558;29;20035;-80
2023/07/10 10:19:03;;;;;;;7.88;0.90;;;37.80;36.60;;;;;;4918438;29;20035;-84
2023/07/10 10:21:32;;;;;;;3.53;0.90;;;37.50;35.20;;;;;;4914308;29;20044;-84
2023/07/10 10:24:04;;;;;;;5.15;0.75;;;38.70;37.50;;;;;;4914786;29;20042;-79
2023/07/10 10:27:03;;;;;;;5.65;1.00;;;39.90;37.90;;;;;;4914164;29;20027;-84
2023/07/10 10:29:58;;;;;;;8.90;1.30;;;39.80;33.10;;;;;;4917915;29;20118;-84
2023/07/10 10:32:39;;;;;;;7.25;1.25;;;41.20;34.40;;;;;;4911986;29;20570;-75
2023/07/10 10:35:22;;;;;;;6.00;1.13;;;40.40;32.00;;;;;;4912525;29;20068;-84
2023/07/10 10:37:51;;;;;;;6.40;1.25;;;37.80;36.60;;;;;;4914377;29;20122;-79
2023/07/10 10:40:20;;;;;;;2.90;0.85;;;37.90;36.10;;;;;;4928104;29;20326;-81
2023/07/10 10:42:54;;;;;;;5.03;1.00;;;38.80;36.90;;;;;;4928704;29;20062;-79
2023/07/10 10:45:49;;;;;;;4.85;1.10;;;39.10;34.80;;;;;;4916958;29;20038;-82
2023/07/10 10:48:17;;;;;;;4.25;0.98;;;39.90;35.60;;;;;;4921015;29;20039;-80
2023/07/10 10:50:52;;;;;;;3.55;1.00;;;39.70;34.50;;;;;;4927617;29;20040;-83
2023/07/10 10:53:58;;;;;;;6.55;1.15;;;40.60;35.20;;;;;;4924143;29;20110;-79
2023/07/10 10:56:46;;;;;;;7.35;1.33;;;40.30;36.70;;;;;;4917391;29;20048;-80
2023/07/10 10:59:50;;;;;;;5.47;1.08;;;38.80;36.30;;;;;;4914265;29;20543;-81
2023/07/10 11:02:47;;;;;;;6.18;1.27;;;37.50;38.70;;;;;;4889781;29;20443;-79
2023/07/10 11:05:35;;;;;;;7.15;1.20;;;36.80;37.40;;;;;;4895745;29;20050;-79
2023/07/10 11:08:08;;;;;;;5.18;1.40;;;35.60;39.30;;;;;;4923913;29;20035;-79
2023/07/10 11:10:37;;;;;;;4.57;1.25;;;36.20;39.20;;;;;;4924813;29;20046;-81
2023/07/10 11:13:25;;;;;;;6.10;1.40;;;34.80;41.60;;;;;;4915475;29;20114;-79
2023/07/10 11:15:51;;;;;;;5.22;1.30;;;36.50;40.90;;;;;;4931164;29;20046;-81
2023/07/10 11:18:17;;;;;;;8.35;1.23;;;37.30;41.90;;;;;;4931626;29;20099;-78
2023/07/10 11:20:43;;;;;;;4.13;1.20;;;36.70;39.90;;;;;;4917695;28;20448;-79
2023/07/10 11:23:36;;;;;;;4.55;1.20;;;35.50;42.00;;;;;;4913318;29;20024;-79
2023/07/10 11:26:14;;;;;;;7.05;1.40;;;34.30;42.30;;;;;;4909993;29;20027;-79
2023/07/10 11:28:55;;;;;;;7.00;1.30;;;33.00;44.90;;;;;;4918528;29;20517;-79
2023/07/10 11:31:31;;;;;;;8.75;1.77;;;32.00;46.10;;;;;;4917762;29;20123;-82
2023/07/10 11:34:05;;;;;;;5.50;1.20;;;32.20;47.80;;;;;;4934752;29;21878;-83
2023/07/10 11:36:34;;;;;;;7.35;1.33;;;32.30;51.30;;;;;;4933796;28;20042;-80
2023/07/10 11:39:06;;;;;;;10.45;1.73;;;31.40;52.20;;;;;;4930675;29;20375;-81
2023/07/10 11:41:44;;;;;;;3.40;1.17;;;30.50;55.40;;;;;;4919245;29;20032;-83
2023/07/10 11:44:29;;;;;;;5.82;1.67;;;30.20;54.90;;;;;;4928870;29;20027;-82
2023/07/10 11:46:54;;;;;;;6.40;1.45;;;29.90;55.80;;;;;;4915301;29;20070;-81
2023/07/10 11:49:20;;;;;;;6.18;1.98;;;29.00;56.10;;;;;;4916660;29;20878;-83
2023/07/10 11:52:18;;;;;;;4.88;1.50;;;29.20;58.90;;;;;;4914929;29;20023;-78
2023/07/10 11:54:47;;;;;;;4.75;1.67;;;28.80;54.50;;;;;;4893215;29;20831;-81
2023/07/10 11:57:24;;;;;;;5.13;1.20;;;28.90;60.80;;;;;;4910567;29;20067;-81
2023/07/10 11:59:50;;;;;;;6.20;1.40;;;29.10;60.60;;;;;;4922086;29;20118;-80
2023/07/10 12:02:44;;;;;;;5.30;1.88;;;28.40;61.50;;;;;;4921680;29;20039;-80
2023/07/10 12:05:22;;;;;;;3.97;1.10;;;29.20;62.50;;;;;;4936646;29;20059;-80
2023/07/10 12:08:11;;;;;;;6.65;1.50;;;29.30;63.40;;;;;;4922315;29;20885;-79
2023/07/10 12:10:49;;;;;;;7.60;1.65;;;29.60;64.80;;;;;;4937070;29;20111;-79
2023/07/10 12:13:15;;;;;;;6.22;1.30;;;29.60;60.70;;;;;;4920803;29;20035;-79
2023/07/10 12:15:41;;;;;;;4.38;1.25;;;29.40;60.40;;;;;;4935097;29;20028;-81
2023/07/10 12:18:08;;;;;;;4.72;1.20;;;28.70;59.80;;;;;;4920894;29;20023;-79
2023/07/10 12:20:35;;;;;;;5.95;1.38;;;27.90;59.40;;;;;;4919469;29;20051;-81
2023/07/10 12:23:06;;;;;;;5.28;1.15;;;26.80;64.30;;;;;;4936868;29;20043;-78
2023/07/10 12:25:32;;;;;;;8.75;1.50;;;26.30;72.60;;;;;;4917454;29;20238;-79
2023/07/10 12:28:11;;;;;;;7.75;1.50;;;25.90;83.80;;;;;;4917979;29;20035;-82
2023/07/10 12:30:38;;;;;;;8.50;1.60;;;26.00;83.10;;;;;;4921195;29;20036;-80
2023/07/10 12:33:21;;;;;;;6.32;1.10;;;26.50;93.70;;;;;;4913341;29;20043;-80
2023/07/10 12:35:46;;;;;;;5.80;0.98;;;26.70;81.70;;;;;;4922328;29;20122;-81
2023/07/10 12:38:12;;;;;;;7.53;1.63;;;26.00;83.40;;;;;;4921548;29;20126;-80
2023/07/10 12:40:38;;;;;;;5.40;1.35;;;25.70;85.10;;;;;;4926494;29;20052;-79
2023/07/10 12:43:21;;;;;;;5.78;1.10;;;26.40;84.40;;;;;;4919661;29;20115;-79
2023/07/10 12:45:54;;;;;;;7.82;1.50;;;27.00;85.50;;;;;;4922096;29;20141;-77
2023/07/10 12:48:20;;;;;;;8.23;1.33;;;27.20;85.30;;;;;;4925117;29;20554;-77
2023/07/10 12:50:49;;;;;;;5.35;1.73;;;27.30;76.80;;;;;;4921168;29;20040;-77
2023/07/10 12:53:24;;;;;;;5.43;1.20;;;27.40;76.80;;;;;;4918127;29;20031;-77
2023/07/10 12:56:21;;;;;;;5.10;1.25;;;27.10;72.20;;;;;;4922683;29;20508;-78
2023/07/10 12:58:47;;;;;;;5.28;1.20;;;27.60;85.00;;;;;;4922606;29;20118;-77